Terminal Aerodrome Forecast
Issued by NWS

Home | Current Version | Previous Version | Text Only | Print | Product List | Glossary On
Versions: 1 2 3 4 5 6 7 8 9 10 11 12 13
568
FTUS44 KTSA 271720
TAFMLC
TAF
KMLC 271720Z 2718/2818 18014G24KT P6SM SCT025
     FM272100 19013G20KT P6SM BKN050
      TEMPO 2723/2803 VRB30G50KT 1SM +TSRA BKN015CB
     FM280300 22007KT P6SM OVC050 PROB30 2803/2807 1SM +TSRA
      BKN015CB
     FM280800 34008KT 4SM BR OVC007=

USA.gov is the U.S. government's official web portal to all federal, state and local government web resources and services.